createdAt,value
2023-02-16T00:00:43.213Z,37.88
2023-02-16T00:03:19.230Z,44.30
2023-02-16T00:05:46.123Z,42.50
2023-02-16T00:08:15.936Z,42.97
2023-02-16T00:11:03.139Z,44.28
2023-02-16T00:13:48.210Z,48.95
2023-02-16T00:18:43.226Z,35.95
2023-02-16T00:21:09.889Z,41.03
2023-02-16T00:23:36.556Z,39.42
2023-02-16T00:26:03.469Z,39.13
2023-02-16T00:28:30.308Z,38.75
2023-02-16T00:30:57.239Z,41.03
2023-02-16T00:33:23.980Z,41.30
2023-02-16T00:35:50.678Z,40.28
2023-02-16T00:38:17.303Z,36.85
2023-02-16T00:40:44.381Z,41.40
2023-02-16T00:43:27.859Z,40.67
2023-02-16T00:45:55.423Z,39.95
2023-02-16T00:48:23.523Z,42.03
2023-02-16T00:50:50.151Z,40.25
2023-02-16T00:53:16.765Z,40.33
2023-02-16T00:55:44.137Z,41.38
2023-02-16T00:58:22.420Z,41.55
2023-02-16T01:00:53.350Z,37.65
2023-02-16T01:03:25.809Z,40.55
2023-02-16T01:06:12.657Z,43.38
2023-02-16T01:08:57.953Z,41.95
2023-02-16T01:11:26.772Z,41.28
2023-02-16T01:13:55.228Z,42.50
2023-02-16T01:16:24.995Z,40.70
2023-02-16T01:18:52.499Z,40.05
2023-02-16T01:21:19.821Z,37.55
2023-02-16T01:23:46.604Z,37.78
2023-02-16T01:26:19.995Z,38.83
2023-02-16T01:28:47.284Z,39.08
2023-02-16T01:31:14.567Z,38.58
2023-02-16T01:33:42.207Z,39.83
2023-02-16T01:36:29.940Z,39.35
2023-02-16T01:38:56.612Z,40.17
2023-02-16T01:41:28.254Z,42.80
2023-02-16T01:44:09.481Z,41.55
2023-02-16T01:46:46.461Z,39.65
2023-02-16T01:49:17.976Z,42.20
2023-02-16T01:52:19.429Z,45.03
2023-02-16T01:55:05.220Z,40.80
2023-02-16T01:57:45.907Z,44.60
2023-02-16T02:00:41.892Z,44.08
2023-02-16T02:03:31.976Z,43.60
2023-02-16T02:05:58.856Z,44.42
2023-02-16T02:08:50.855Z,38.95
2023-02-16T02:11:24.889Z,44.10
2023-02-16T02:14:00.312Z,47.35
2023-02-16T02:17:07.519Z,46.70
2023-02-16T02:20:11.483Z,44.20
2023-02-16T02:23:33.672Z,45.03
2023-02-16T02:26:39.131Z,41.65
2023-02-16T02:29:08.795Z,48.90
2023-02-16T02:32:18.390Z,45.30
2023-02-16T02:35:03.001Z,48.33
2023-02-16T02:37:57.988Z,45.97
2023-02-16T02:40:30.797Z,53.47
2023-02-16T02:43:18.736Z,51.83
2023-02-16T02:46:06.679Z,47.75
2023-02-16T02:48:34.578Z,48.45
2023-02-16T02:51:22.779Z,49.22
2023-02-16T02:54:37.385Z,51.22
2023-02-16T02:57:34.979Z,43.67
2023-02-16T03:19:52.070Z,45.47
2023-02-16T03:22:41.064Z,53.35
2023-02-16T03:25:26.582Z,55.25
2023-02-16T03:28:17.414Z,54.13
2023-02-16T03:30:46.528Z,51.88
2023-02-16T03:33:21.021Z,58.38
2023-02-16T03:36:01.370Z,56.10
2023-02-16T03:38:28.550Z,49.17
2023-02-16T03:41:04.922Z,55.33
2023-02-16T03:43:32.212Z,55.20
2023-02-16T03:46:33.450Z,53.45
2023-02-16T03:49:06.099Z,56.10
2023-02-16T03:51:33.099Z,59.10
2023-02-16T03:54:03.094Z,55.72
2023-02-16T03:56:42.181Z,60.10
2023-02-16T03:59:21.338Z,58.47
2023-02-16T04:02:00.517Z,57.05
2023-02-16T04:04:27.646Z,59.22
2023-02-16T04:07:03.570Z,55.40
2023-02-16T04:09:30.306Z,60.28
2023-02-16T04:12:38.233Z,59.97
2023-02-16T04:15:26.675Z,60.35
2023-02-16T04:18:34.382Z,62.03
2023-02-16T04:28:07.735Z,64.60
2023-02-16T04:30:40.062Z,60.25
2023-02-16T04:33:21.894Z,60.83
2023-02-16T04:35:49.040Z,65.15
2023-02-16T04:41:14.165Z,65.57
2023-02-16T04:43:59.786Z,65.63
2023-02-16T04:46:35.375Z,64.03
2023-02-16T04:49:11.011Z,63.70
2023-02-16T04:51:45.127Z,59.42
2023-02-16T04:54:37.637Z,66.43
2023-02-16T04:57:13.510Z,57.70
2023-02-16T04:59:49.421Z,67.40
2023-02-16T05:02:16.320Z,67.07
2023-02-16T05:05:03.262Z,67.78
2023-02-16T05:10:29.456Z,64.10
2023-02-16T05:13:33.141Z,67.85
2023-02-16T05:15:59.940Z,61.90
2023-02-16T05:19:06.207Z,57.28
2023-02-16T05:24:40.176Z,65.90
2023-02-16T05:27:24.847Z,65.57
2023-02-16T05:29:52.100Z,68.43
2023-02-16T05:35:00.138Z,68.40
2023-02-16T05:37:27.030Z,67.20
2023-02-16T05:39:53.901Z,68.07
2023-02-16T05:42:27.202Z,70.47
2023-02-16T05:45:06.297Z,68.20
2023-02-16T05:47:32.969Z,69.00
2023-02-16T05:49:59.740Z,67.38
2023-02-16T05:52:27.550Z,69.78
2023-02-16T05:54:59.845Z,69.32
2023-02-16T05:57:26.697Z,66.88
2023-02-16T06:00:00.806Z,65.57
2023-02-16T06:02:27.648Z,71.28
2023-02-16T06:07:47.677Z,68.40
2023-02-16T06:10:24.752Z,69.55
2023-02-16T06:13:07.055Z,73.15
2023-02-16T06:15:34.903Z,69.63
2023-02-16T06:18:05.005Z,72.13
2023-02-16T06:27:19.257Z,70.82
2023-02-16T06:29:46.271Z,66.47
2023-02-16T06:34:54.961Z,67.60
2023-02-16T06:37:22.366Z,69.93
2023-02-16T06:40:10.831Z,72.82
2023-02-16T06:42:40.440Z,73.90
2023-02-16T06:45:25.022Z,74.95
2023-02-16T06:48:08.224Z,63.50
2023-02-16T06:50:37.918Z,64.45
2023-02-16T06:53:23.184Z,69.35
2023-02-16T06:55:58.928Z,69.82
2023-02-16T07:01:46.129Z,67.65
2023-02-16T07:04:33.301Z,67.47
2023-02-16T07:07:09.532Z,67.90
2023-02-16T07:10:10.510Z,66.60
2023-02-16T07:12:40.117Z,64.35
2023-02-16T07:15:26.330Z,72.97
2023-02-16T07:18:02.087Z,70.85
2023-02-16T07:23:26.069Z,69.57
2023-02-16T07:26:08.661Z,64.65
2023-02-16T07:28:54.124Z,62.33
2023-02-16T07:31:21.370Z,66.13
2023-02-16T07:37:13.563Z,66.00
2023-02-16T07:39:55.850Z,64.00
2023-02-16T07:42:51.883Z,61.08
2023-02-16T07:45:18.960Z,66.97
2023-02-16T07:51:46.744Z,66.07
2023-02-16T07:57:23.226Z,64.88
2023-02-16T07:59:59.223Z,68.18
2023-02-16T08:08:17.822Z,64.47
2023-02-16T08:10:44.746Z,66.20
2023-02-16T08:13:14.386Z,68.97
2023-02-16T08:15:44.472Z,68.03
2023-02-16T08:18:26.453Z,67.25
2023-02-16T08:21:03.673Z,63.40
2023-02-16T08:29:36.891Z,69.93
2023-02-16T08:32:13.772Z,67.57
2023-02-16T08:34:47.018Z,58.88
2023-02-16T08:37:25.210Z,65.20
2023-02-16T08:40:26.811Z,64.68
2023-02-16T08:43:12.216Z,54.90
2023-02-16T08:46:09.223Z,68.45
2023-02-16T08:48:45.369Z,63.90
2023-02-16T08:51:34.868Z,61.85
2023-02-16T08:54:38.868Z,60.35
2023-02-16T09:13:15.971Z,60.88
2023-02-16T09:16:02.753Z,45.20
2023-02-16T09:21:15.090Z,32.83
2023-02-16T09:23:44.861Z,53.10
2023-02-16T09:26:30.452Z,61.55
2023-02-16T09:31:54.737Z,30.58
2023-02-16T09:34:30.993Z,57.33
2023-02-16T09:37:10.205Z,65.53
2023-02-16T09:39:37.249Z,59.58
2023-02-16T09:45:35.612Z,61.47
2023-02-16T09:51:45.523Z,67.10
2023-02-16T09:54:35.173Z,66.55
2023-02-16T09:58:13.525Z,69.43
2023-02-16T10:01:39.763Z,60.08
2023-02-16T10:05:06.449Z,65.50
2023-02-16T10:08:08.095Z,58.28
2023-02-16T10:11:51.582Z,69.45
2023-02-16T10:14:51.661Z,63.25
2023-02-16T10:17:39.800Z,42.17
2023-02-16T10:21:00.276Z,63.83
2023-02-16T10:24:13.672Z,68.70
2023-02-16T10:27:49.511Z,64.22
2023-02-16T10:30:47.035Z,60.08
2023-02-16T10:33:41.317Z,61.13
2023-02-16T10:36:37.548Z,69.25
2023-02-16T10:39:32.670Z,58.95
2023-02-16T10:42:07.118Z,51.33
2023-02-16T10:44:43.853Z,49.85
2023-02-16T10:47:41.979Z,62.17
2023-02-16T10:50:27.796Z,58.55
2023-02-16T10:52:58.734Z,62.28
2023-02-16T10:55:26.314Z,56.30
2023-02-16T10:58:22.496Z,60.72
2023-02-16T11:04:59.697Z,43.65
2023-02-16T11:08:14.365Z,60.83
2023-02-16T11:10:52.864Z,49.45
2023-02-16T11:11:14.701Z,53.05
2023-02-16T11:13:32.620Z,52.25
2023-02-16T11:20:09.476Z,58.13
2023-02-16T11:28:53.976Z,42.20
2023-02-16T11:31:42.664Z,44.47
2023-02-16T11:34:59.233Z,52.28
2023-02-16T11:40:53.766Z,45.05
2023-02-16T11:43:57.310Z,51.45
2023-02-16T11:46:27.645Z,50.40
2023-02-16T11:52:33.838Z,55.00
2023-02-16T11:58:34.705Z,53.72
2023-02-16T12:01:55.869Z,34.65
2023-02-16T12:08:40.552Z,53.00
2023-02-16T12:11:45.962Z,50.00
2023-02-16T12:14:41.559Z,51.53
2023-02-16T12:18:01.611Z,35.78
2023-02-16T12:21:00.628Z,50.42
2023-02-16T12:24:17.954Z,51.75
2023-02-16T12:27:11.563Z,46.67
2023-02-16T12:33:32.693Z,41.15
2023-02-16T12:36:40.957Z,46.50
2023-02-16T12:39:49.737Z,32.63
2023-02-16T12:42:59.744Z,39.25
2023-02-16T12:46:21.441Z,43.88
2023-02-16T13:23:13.452Z,24.65
2023-02-16T13:25:54.982Z,26.10
2023-02-16T13:28:50.501Z,25.92
2023-02-16T13:32:21.034Z,26.33
2023-02-16T13:42:15.497Z,23.37
2023-02-16T13:45:18.777Z,16.65
2023-02-16T13:48:46.783Z,16.42
2023-02-16T13:55:19.960Z,21.95
2023-02-16T13:58:09.779Z,22.50
2023-02-16T14:03:45.740Z,19.73
2023-02-16T14:06:37.829Z,21.13
2023-02-16T14:09:16.985Z,21.88
2023-02-16T14:12:11.910Z,21.33
2023-02-16T14:15:20.545Z,24.52
2023-02-16T14:18:51.424Z,21.35
2023-02-16T14:21:52.616Z,19.10
2023-02-16T14:28:32.170Z,24.63
2023-02-16T14:31:50.803Z,22.30
2023-02-16T14:35:22.669Z,16.85
2023-02-16T14:49:28.563Z,23.13
2023-02-16T14:52:55.970Z,17.70
2023-02-16T14:56:12.448Z,13.05
2023-02-16T15:02:25.466Z,19.90
2023-02-16T15:05:47.798Z,15.90
2023-02-16T15:12:31.179Z,20.30
2023-02-16T15:15:14.302Z,18.05
2023-02-16T15:18:05.634Z,25.60
2023-02-16T15:20:53.904Z,18.95
2023-02-16T15:24:07.619Z,22.85
2023-02-16T15:29:37.129Z,17.60
2023-02-16T15:32:22.579Z,22.65
2023-02-16T15:34:50.548Z,24.13
2023-02-16T15:37:33.154Z,21.85
2023-02-16T15:40:27.196Z,23.92
2023-02-16T15:48:56.737Z,22.15
2023-02-16T15:51:54.232Z,24.13
2023-02-16T16:24:59.649Z,22.20
2023-02-16T16:27:55.544Z,22.58
2023-02-16T16:30:50.676Z,23.45
2023-02-16T16:33:49.617Z,19.33
2023-02-16T16:36:52.633Z,26.02
2023-02-16T16:39:39.158Z,20.48
2023-02-16T16:43:02.192Z,24.33
2023-02-16T16:48:48.153Z,23.05
2023-02-16T16:51:33.361Z,21.23
2023-02-16T16:54:48.127Z,22.35
2023-02-16T16:57:32.798Z,20.60
2023-02-16T17:03:00.649Z,12.98
2023-02-16T17:05:27.308Z,20.23
2023-02-16T17:07:54.002Z,17.92
2023-02-16T17:10:21.865Z,16.38
2023-02-16T17:12:55.906Z,21.40
2023-02-16T17:15:27.425Z,27.95
2023-02-16T17:17:54.405Z,26.88
2023-02-16T17:20:21.471Z,26.30
2023-02-16T17:22:48.510Z,27.98
2023-02-16T17:25:15.299Z,17.10
2023-02-16T17:27:41.978Z,22.75
2023-02-16T17:30:10.987Z,16.92
2023-02-16T17:32:37.789Z,27.75
2023-02-16T17:35:04.724Z,15.57
2023-02-16T17:37:33.427Z,25.55
2023-02-16T17:40:00.022Z,29.83
2023-02-16T17:42:28.194Z,26.58
2023-02-16T17:44:54.987Z,22.95
2023-02-16T17:47:21.712Z,24.38
2023-02-16T17:49:48.808Z,28.52
2023-02-16T17:52:15.536Z,29.23
2023-02-16T17:54:42.488Z,28.35
2023-02-16T17:57:10.542Z,27.23
2023-02-16T17:59:37.689Z,30.33
2023-02-16T18:02:04.415Z,23.77
2023-02-16T18:04:31.166Z,26.73
2023-02-16T18:06:57.906Z,19.92
2023-02-16T18:09:24.699Z,30.38
2023-02-16T18:11:51.428Z,25.88
2023-02-16T18:14:18.182Z,22.23
2023-02-16T18:16:44.886Z,28.63
2023-02-16T18:19:15.034Z,29.23
2023-02-16T18:21:41.697Z,30.52
2023-02-16T18:24:08.424Z,23.65
2023-02-16T18:26:35.089Z,27.10
2023-02-16T18:29:01.793Z,22.25
2023-02-16T18:31:28.546Z,29.48
2023-02-16T18:34:00.189Z,30.50
2023-02-16T18:36:27.104Z,25.55
2023-02-16T18:38:53.797Z,18.98
2023-02-16T18:41:20.407Z,26.13
2023-02-16T18:43:47.179Z,27.45
2023-02-16T18:46:14.157Z,18.52
2023-02-16T18:48:41.055Z,22.17
2023-02-16T18:51:09.705Z,23.65
2023-02-16T18:53:40.377Z,11.27
2023-02-16T18:56:09.040Z,24.55
2023-02-16T18:58:36.323Z,25.77
2023-02-16T19:01:27.769Z,12.93
2023-02-16T19:03:54.941Z,17.60
2023-02-16T19:06:22.232Z,14.43
2023-02-16T19:08:51.223Z,15.35
2023-02-16T19:11:19.383Z,8.70
2023-02-16T19:13:46.736Z,10.43
2023-02-16T19:16:19.203Z,14.05
2023-02-16T19:18:46.333Z,16.08
2023-02-16T19:21:16.006Z,12.98
2023-02-16T19:23:43.868Z,14.90
2023-02-16T19:26:13.678Z,17.85
2023-02-16T19:28:41.267Z,14.98
2023-02-16T19:31:18.524Z,12.60
2023-02-16T19:33:45.683Z,9.80
2023-02-16T19:36:12.849Z,15.30
2023-02-16T20:32:07.376Z,14.05
2023-02-16T20:34:50.801Z,12.98
2023-02-16T20:37:19.011Z,11.00
2023-02-16T20:39:59.095Z,10.18
2023-02-16T21:07:32.175Z,10.82
2023-02-16T21:10:11.409Z,8.25
2023-02-16T21:12:48.520Z,8.70
2023-02-16T21:15:19.020Z,9.75
2023-02-16T21:23:51.786Z,8.33
2023-02-16T21:39:03.022Z,6.47
2023-02-16T21:43:13.156Z,7.03
2023-02-16T21:50:44.211Z,6.07
2023-02-16T21:56:12.757Z,7.80
2023-02-16T21:58:39.423Z,8.82
2023-02-16T22:03:50.261Z,8.18
2023-02-16T22:06:42.625Z,6.07
2023-02-16T22:09:21.454Z,7.38
2023-02-16T22:11:51.416Z,6.47
2023-02-16T22:14:28.118Z,6.35
2023-02-16T22:21:06.090Z,5.63
2023-02-16T22:23:37.105Z,8.52
2023-02-16T22:26:06.273Z,11.27
2023-02-16T22:28:34.046Z,13.82
2023-02-16T22:31:07.706Z,9.75
2023-02-16T22:33:35.094Z,11.95
2023-02-16T22:36:20.112Z,9.23
2023-02-16T22:41:26.966Z,8.75
2023-02-16T22:44:02.971Z,6.65
2023-02-16T22:46:48.700Z,8.65
2023-02-16T22:49:15.705Z,10.50
2023-02-16T22:51:57.688Z,12.48
2023-02-16T22:54:30.201Z,10.98
2023-02-16T22:57:07.194Z,10.63
2023-02-16T22:59:43.632Z,6.15
2023-02-16T23:02:10.407Z,11.05
2023-02-16T23:04:42.387Z,8.32
2023-02-16T23:07:11.682Z,12.07
2023-02-16T23:09:56.952Z,10.60
2023-02-16T23:12:37.049Z,10.20
2023-02-16T23:15:03.964Z,10.38
2023-02-16T23:17:42.768Z,12.18
2023-02-16T23:20:12.194Z,10.65
2023-02-16T23:22:39.945Z,13.07
2023-02-16T23:25:25.468Z,12.63
2023-02-16T23:27:53.387Z,7.35
2023-02-16T23:30:21.114Z,11.82
2023-02-16T23:32:48.920Z,7.72
2023-02-16T23:35:17.106Z,11.65
2023-02-16T23:37:44.189Z,9.35
2023-02-16T23:40:11.338Z,11.10
2023-02-16T23:42:40.441Z,8.45
2023-02-16T23:45:25.145Z,10.00
2023-02-16T23:48:03.684Z,11.20
2023-02-16T23:53:47.518Z,10.80
2023-02-16T23:56:20.264Z,8.65
2023-02-16T23:58:47.888Z,7.43
